Time;durP1;ratioP1;P1;durP2;ratioP2;P2;SDS_P1;SDS_P2;PMS_P1;PMS_P2;Temp;Humidity;BMP_temperature;BMP_pressure;BME280_temperature;BME280_humidity;BME280_pressure;Samples;Min_cycle;Max_cycle;Signal;HPM_P1;HPM_P2
2022/04/16 00:01:04;;;;;;;;;9.75;8.75;;;;;21.27;38.12;102152.44;4974480;28;45392;-52
2022/04/16 00:03:30;;;;;;;;;9.50;9.25;;;;;21.27;38.13;102156.84;4974471;28;45309;-54
2022/04/16 00:05:56;;;;;;;;;10.25;7.50;;;;;21.27;37.93;102159.50;4974662;28;45211;-55
2022/04/16 00:08:24;;;;;;;;;10.00;10.00;;;;;21.28;38.24;102155.91;4974566;28;45375;-63
2022/04/16 00:10:50;;;;;;;;;8.00;8.00;;;;;21.27;37.92;102156.84;4974471;28;46047;-51
2022/04/16 00:13:17;;;;;;;;;9.00;9.00;;;;;21.27;37.65;102154.22;4974418;28;45346;-48
2022/04/16 00:15:49;;;;;;;;;8.00;7.25;;;;;21.26;38.38;102155.97;4974590;28;45455;-50
2022/04/16 00:18:15;;;;;;;;;10.00;7.50;;;;;21.27;37.79;102156.84;4973981;28;45608;-57
2022/04/16 00:20:40;;;;;;;;;8.50;8.50;;;;;21.25;37.77;102151.63;4974171;28;45919;-56
2022/04/16 00:23:07;;;;;;;;;8.00;7.50;;;;;21.25;38.21;102148.97;4974282;28;45341;-58
2022/04/16 00:25:34;;;;;;;;;6.50;6.25;;;;;21.27;38.14;102149.78;4973276;28;45889;-51
2022/04/16 00:28:01;;;;;;;;;10.75;9.50;;;;;21.27;37.92;102151.59;4973937;28;46144;-52
2022/04/16 00:30:26;;;;;;;;;8.75;7.00;;;;;21.27;38.06;102151.59;4974081;28;45799;-48
2022/04/16 00:32:55;;;;;;;;;6.00;6.00;;;;;21.26;38.12;102141.94;4974328;28;45277;-50
2022/04/16 00:35:23;;;;;;;;;12.00;9.00;;;;;21.26;38.15;102148.06;4973384;28;45390;-46
2022/04/16 00:37:49;;;;;;;;;8.00;8.00;;;;;21.26;38.38;102148.06;4973762;28;46667;-50
2022/04/16 00:40:14;;;;;;;;;7.75;7.75;;;;;21.26;38.00;102144.59;4973905;28;45417;-47
2022/04/16 00:42:44;;;;;;;;;12.75;9.75;;;;;21.26;37.83;102145.44;4973898;28;45340;-50
2022/04/16 00:45:10;;;;;;;;;10.00;6.00;;;;;21.27;38.14;102143.66;4974102;28;45240;-47
2022/04/16 00:47:36;;;;;;;;;8.50;7.25;;;;;21.25;38.02;102143.72;4973708;28;45326;-51
2022/04/16 00:50:08;;;;;;;;;10.50;8.75;;;;;21.26;38.01;102147.22;4973566;28;45327;-50
2022/04/16 00:52:34;;;;;;;;;8.75;8.75;;;;;21.25;38.20;102141.06;4973628;28;45189;-65
2022/04/16 00:54:59;;;;;;;;;10.25;8.50;;;;;21.25;37.92;102148.13;4977054;28;45434;-64
2022/04/16 00:57:25;;;;;;;;;8.00;8.00;;;;;21.25;38.01;102140.22;4976927;28;45847;-54
2022/04/16 00:59:52;;;;;;;;;7.75;6.75;;;;;21.24;38.37;102136.72;4977060;28;45304;-66
2022/04/16 01:02:17;;;;;;;;;8.25;8.00;;;;;21.23;38.33;102148.16;4975504;28;45375;-66
2022/04/16 01:04:43;;;;;;;;;11.25;8.75;;;;;21.23;38.11;102132.34;4976888;28;45373;-58
2022/04/16 01:07:09;;;;;;;;;8.75;7.00;;;;;21.23;38.00;102131.50;4976444;28;46798;-54
2022/04/16 01:09:35;;;;;;;;;8.00;7.25;;;;;21.21;38.31;102131.56;4976492;28;45273;-51
2022/04/16 01:12:00;;;;;;;;;8.50;8.25;;;;;21.23;37.96;102134.16;4976695;28;45361;-54
2022/04/16 01:14:26;;;;;;;;;8.75;8.75;;;;;21.21;38.09;102134.22;4976692;28;45526;-51
2022/04/16 01:16:56;;;;;;;;;9.50;9.50;;;;;21.23;38.16;102137.63;4976543;28;46263;-50
2022/04/16 01:19:22;;;;;;;;;7.75;7.75;;;;;21.23;38.22;102132.34;4976552;28;45902;-50
2022/04/16 01:21:48;;;;;;;;;10.00;7.75;;;;;21.22;38.30;102129.78;4975126;28;45465;-51
2022/04/16 01:24:14;;;;;;;;;7.00;7.00;;;;;21.20;38.00;102127.22;4976590;28;45264;-49
2022/04/16 01:26:42;;;;;;;;;9.25;6.75;;;;;21.22;37.92;102135.06;4976263;28;46344;-49
2022/04/16 01:29:08;;;;;;;;;6.50;5.75;;;;;21.21;38.32;102130.69;4976278;28;45314;-47
2022/04/16 01:31:34;;;;;;;;;8.50;8.50;;;;;21.20;38.28;102131.63;4976361;28;45232;-52
2022/04/16 01:34:00;;;;;;;;;6.25;6.00;;;;;21.19;38.04;102130.78;4976390;28;45595;-51
2022/04/16 01:36:29;;;;;;;;;9.25;8.75;;;;;21.20;38.17;102129.84;4976315;28;46944;-61
2022/04/16 01:38:55;;;;;;;;;8.25;8.25;;;;;21.20;38.11;102137.75;4976410;28;45812;-57
2022/04/16 01:41:21;;;;;;;;;7.00;7.00;;;;;21.19;37.90;102135.16;4976208;28;45521;-57
2022/04/16 01:43:46;;;;;;;;;10.25;8.25;;;;;21.20;38.32;102142.16;4976243;28;45492;-57
2022/04/16 01:46:11;;;;;;;;;7.00;7.00;;;;;21.19;37.93;102140.44;4975846;28;46667;-51
2022/04/16 01:48:37;;;;;;;;;8.50;8.00;;;;;21.18;38.35;102142.22;4975968;28;45280;-57
2022/04/16 01:51:02;;;;;;;;;8.50;7.25;;;;;21.18;37.96;102136.94;4976120;28;45362;-50
2022/04/16 01:53:27;;;;;;;;;8.25;7.75;;;;;21.19;37.94;102137.81;4976082;28;45584;-48
2022/04/16 01:55:53;;;;;;;;;8.00;6.25;;;;;21.18;38.26;102131.69;4976019;28;46283;-50
2022/04/16 01:58:20;;;;;;;;;8.00;6.25;;;;;21.18;37.93;102139.59;4974773;28;45278;-54
2022/04/16 02:00:45;;;;;;;;;9.00;9.00;;;;;21.17;38.29;102149.25;4975951;28;45259;-50
2022/04/16 02:03:11;;;;;;;;;6.50;6.00;;;;;21.18;38.10;102150.13;4975963;28;45546;-50
2022/04/16 02:05:37;;;;;;;;;7.50;7.50;;;;;21.17;38.08;102146.63;4974521;28;45815;-54
2022/04/16 02:08:02;;;;;;;;;8.50;7.75;;;;;21.16;38.15;102144.06;4975879;28;45394;-48
2022/04/16 02:10:28;;;;;;;;;7.00;7.00;;;;;21.16;37.90;102141.41;4976040;28;45402;-50
2022/04/16 02:12:53;;;;;;;;;9.25;9.25;;;;;21.14;38.38;102133.59;4976223;28;45394;-49
2022/04/16 02:15:19;;;;;;;;;7.00;6.50;;;;;21.15;37.89;102139.69;4975774;28;46419;-58
2022/04/16 02:17:44;;;;;;;;;9.50;7.25;;;;;21.15;37.88;102144.97;4975717;28;45306;-59
2022/04/16 02:20:10;;;;;;;;;9.25;9.25;;;;;21.15;38.25;102144.97;4975431;28;45202;-54
2022/04/16 02:22:39;;;;;;;;;9.50;7.75;;;;;21.15;38.34;102144.97;4976087;28;45482;-52
2022/04/16 02:25:07;;;;;;;;;9.25;8.25;;;;;21.13;38.21;102144.16;4975513;28;45429;-53
2022/04/16 02:27:34;;;;;;;;;7.00;6.00;;;;;21.14;38.39;102143.25;4975631;28;45452;-57
2022/04/16 02:30:04;;;;;;;;;8.25;8.25;;;;;21.14;38.15;102137.97;4975732;28;45315;-47
2022/04/16 02:32:30;;;;;;;;;10.00;8.00;;;;;21.14;37.92;102140.59;4976094;28;45179;-54
2022/04/16 02:34:56;;;;;;;;;9.75;8.50;;;;;21.13;38.25;102142.41;4975675;28;45432;-56
2022/04/16 02:37:21;;;;;;;;;8.00;8.00;;;;;21.13;38.14;102149.44;4975336;28;45376;-54
2022/04/16 02:39:47;;;;;;;;;9.00;7.50;;;;;21.13;38.01;102146.81;4975613;28;45875;-52
2022/04/16 02:42:13;;;;;;;;;12.00;11.50;;;;;21.12;37.92;102145.06;4974277;28;45518;-54
2022/04/16 02:47:36;;;;;;;;;9.25;8.00;;;;;21.12;38.34;102150.34;4963318;28;45797;-63
2022/04/16 02:50:02;;;;;;;;;11.00;9.00;;;;;21.12;38.09;102145.06;4975445;28;45248;-53
2022/04/16 02:52:30;;;;;;;;;8.75;8.75;;;;;21.10;38.23;102147.78;4975904;28;45482;-55
2022/04/16 02:54:56;;;;;;;;;9.00;8.25;;;;;21.10;38.21;102146.94;4975469;28;45864;-53
2022/04/16 02:57:21;;;;;;;;;10.00;7.00;;;;;21.10;38.13;102146.94;4975178;28;45357;-52
2022/04/16 02:59:49;;;;;;;;;12.50;9.25;;;;;21.10;38.14;102146.94;4975302;28;45253;-50
2022/04/16 03:02:15;;;;;;;;;9.25;9.25;;;;;21.10;38.41;102142.50;4974152;28;45399;-51
2022/04/16 03:04:40;;;;;;;;;8.75;8.75;;;;;21.08;38.31;102136.44;4975079;28;47265;-50
2022/04/16 03:07:06;;;;;;;;;8.00;8.00;;;;;21.09;38.41;102142.56;4975210;28;45441;-51
2022/04/16 03:09:31;;;;;;;;;9.75;9.00;;;;;21.09;38.05;102139.94;4975429;28;45316;-47
2022/04/16 03:11:58;;;;;;;;;7.75;7.75;;;;;21.07;38.55;102131.22;4975563;28;45649;-54
2022/04/16 03:19:51;;;;;;;;;9.00;8.25;;;;;21.06;38.10;102145.31;4974974;28;45332;-60
2022/04/16 03:22:16;;;;;;;;;8.00;6.75;;;;;21.05;38.60;102133.94;4975317;28;45344;-51
2022/04/16 03:24:42;;;;;;;;;10.00;10.00;;;;;21.04;38.18;102139.22;4974892;28;46208;-54
2022/04/16 03:27:08;;;;;;;;;10.75;9.25;;;;;21.04;38.36;102134.84;4974917;28;45344;-55
2022/04/16 03:29:34;;;;;;;;;10.50;9.00;;;;;21.05;38.24;102144.47;4974916;28;45235;-59
2022/04/16 03:31:59;;;;;;;;;11.50;9.25;;;;;21.03;38.21;102140.16;4974206;28;45614;-58
2022/04/16 03:34:25;;;;;;;;;10.00;9.00;;;;;21.03;38.61;102145.41;4974632;28;46078;-51
2022/04/16 03:36:50;;;;;;;;;11.00;9.50;;;;;21.04;38.34;102139.22;4974744;28;45264;-54
2022/04/16 03:39:15;;;;;;;;;8.25;8.00;;;;;21.03;37.93;102134.88;4974759;28;45439;-60
2022/04/16 03:41:41;;;;;;;;;11.00;9.75;;;;;21.00;37.88;102139.34;4974946;28;45514;-58
2022/04/16 03:44:06;;;;;;;;;14.50;13.00;;;;;21.04;37.92;102139.22;4974497;28;45269;-59
2022/04/16 03:46:32;;;;;;;;;12.50;10.25;;;;;21.03;38.33;102140.16;4974932;28;45363;-55
2022/04/16 03:48:59;;;;;;;;;12.00;10.75;;;;;21.02;38.31;102141.94;4974628;28;45466;-58
2022/04/16 03:51:26;;;;;;;;;11.75;10.50;;;;;21.00;38.52;102141.13;4974752;28;45319;-54
2022/04/16 03:53:52;;;;;;;;;10.00;9.00;;;;;21.00;38.45;102134.06;4974324;28;47100;-55
2022/04/16 04:01:45;;;;;;;;;13.25;10.50;;;;;20.97;38.42;102126.28;4974857;28;45277;-56
2022/04/16 04:04:11;;;;;;;;;9.75;9.00;;;;;20.98;37.95;102130.66;4974231;28;46990;-59
2022/04/16 04:06:36;;;;;;;;;11.25;11.25;;;;;20.99;38.20;102131.50;4974422;28;45177;-59
2022/04/16 04:09:02;;;;;;;;;12.00;10.50;;;;;20.97;38.46;102131.56;4974603;28;50503;-55
2022/04/16 04:11:27;;;;;;;;;9.00;8.25;;;;;20.96;38.27;102129.84;4974635;28;45538;-61
2022/04/16 04:13:52;;;;;;;;;9.00;9.00;;;;;20.96;38.04;102135.13;4974082;28;46323;-61
2022/04/16 04:16:19;;;;;;;;;11.50;11.00;;;;;20.96;37.94;102134.25;4974050;28;45242;-57
2022/04/16 04:18:45;;;;;;;;;10.50;10.50;;;;;20.95;38.14;102140.41;4974220;28;45559;-58
2022/04/16 04:21:10;;;;;;;;;9.75;8.25;;;;;20.94;37.88;102142.22;4974540;28;45503;-54
2022/04/16 04:23:35;;;;;;;;;11.75;10.25;;;;;20.96;38.02;102144.78;4974142;28;45501;-54
2022/04/16 04:26:01;;;;;;;;;10.00;10.00;;;;;20.94;38.03;102142.22;4973229;28;46050;-55
2022/04/16 04:28:26;;;;;;;;;9.25;9.25;;;;;20.93;37.86;102145.75;4973334;28;45338;-61
2022/04/16 04:30:51;;;;;;;;;8.25;8.25;;;;;20.93;37.86;102144.91;4974255;28;45535;-59
2022/04/16 04:33:17;;;;;;;;;11.50;10.00;;;;;20.91;38.19;102152.84;4973738;28;45471;-54
2022/04/16 04:35:42;;;;;;;;;11.00;9.00;;;;;20.90;37.90;102151.13;4973893;28;45408;-58
2022/04/16 04:38:07;;;;;;;;;10.50;8.25;;;;;20.91;38.09;102158.13;4974196;28;45261;-57
2022/04/16 04:40:33;;;;;;;;;11.50;10.00;;;;;20.92;38.11;102149.31;4974560;28;45428;-55
2022/04/16 04:42:58;;;;;;;;;9.00;9.00;;;;;20.91;37.97;102152.84;4973673;28;47281;-54
2022/04/16 04:45:23;;;;;;;;;14.25;12.75;;;;;20.92;37.90;102159.84;4973998;28;45493;-54
2022/04/16 04:47:49;;;;;;;;;10.25;10.25;;;;;20.89;38.35;102153.84;4973878;28;45321;-56
2022/04/16 04:50:14;;;;;;;;;10.75;10.00;;;;;20.88;37.87;102152.13;4973854;28;45372;-61
2022/04/16 04:52:41;;;;;;;;;9.50;9.00;;;;;20.89;38.13;102143.28;4973679;28;45396;-56
2022/04/16 04:55:09;;;;;;;;;10.75;8.50;;;;;20.88;37.80;102150.34;4973762;28;45669;-47
2022/04/16 04:57:35;;;;;;;;;13.00;10.75;;;;;20.88;37.86;102150.34;4974185;28;45403;-57
2022/04/16 05:00:00;;;;;;;;;11.75;10.00;;;;;20.87;38.27;102150.38;4973911;28;45467;-59
2022/04/16 05:02:26;;;;;;;;;11.00;11.00;;;;;20.87;38.12;102159.16;4973184;28;46073;-52
2022/04/16 05:04:51;;;;;;;;;9.25;9.00;;;;;20.87;38.20;102155.66;4973532;28;45353;-57
2022/04/16 05:07:16;;;;;;;;;13.50;12.00;;;;;20.87;38.07;102151.25;4973505;28;45571;-56
2022/04/16 05:09:42;;;;;;;;;11.00;8.00;;;;;20.87;37.68;102150.38;4972368;28;45566;-64
2022/04/16 05:12:07;;;;;;;;;8.25;8.00;;;;;20.87;37.89;102158.28;4972245;28;48249;-66
2022/04/16 05:14:33;;;;;;;;;10.00;9.00;;;;;20.84;37.87;102164.53;4973374;28;45345;-58
2022/04/16 05:16:58;;;;;;;;;12.00;9.75;;;;;20.87;37.60;102166.19;4973574;28;45311;-58
2022/04/16 05:19:24;;;;;;;;;10.00;10.00;;;;;20.86;37.62;102165.34;4973578;28;45891;-65
2022/04/16 05:21:49;;;;;;;;;12.75;12.75;;;;;20.85;38.01;102168.91;4973315;28;46350;-60
2022/04/16 05:24:15;;;;;;;;;13.50;11.75;;;;;20.85;38.26;102168.91;4973385;28;45280;-54
2022/04/16 05:26:40;;;;;;;;;11.25;10.00;;;;;20.84;37.87;102175.94;4973472;28;45216;-57
2022/04/16 05:29:06;;;;;;;;;10.50;9.25;;;;;20.83;37.96;102170.72;4973752;28;45310;-55
2022/04/16 05:31:32;;;;;;;;;11.50;11.50;;;;;20.84;38.03;102177.72;4973140;28;46078;-55
2022/04/16 05:36:43;;;;;;;;;9.75;9.75;;;;;20.82;37.67;102183.06;4973411;28;45380;-60
2022/04/16 05:39:09;;;;;;;;;11.75;10.00;;;;;20.82;38.00;102185.69;4974556;28;45443;-66
2022/04/16 05:41:34;;;;;;;;;8.25;8.25;;;;;20.83;38.02;102191.81;4976353;28;46084;-63
2022/04/16 05:44:01;;;;;;;;;10.75;9.25;;;;;20.82;38.05;102195.34;4975930;28;45469;-67
2022/04/16 05:46:26;;;;;;;;;9.50;8.75;;;;;20.81;37.58;102204.16;4976152;28;45390;-63
2022/04/16 05:48:51;;;;;;;;;12.00;10.75;;;;;20.80;37.82;102198.06;4976308;28;45570;-62
2022/04/16 05:51:18;;;;;;;;;15.00;9.75;;;;;20.81;37.67;102201.53;4976004;28;46550;-61
2022/04/16 05:53:46;;;;;;;;;10.75;9.75;;;;;20.80;37.85;102203.31;4975811;28;45368;-59
2022/04/16 05:56:12;;;;;;;;;11.25;9.25;;;;;20.82;38.13;102208.53;4976145;28;45309;-54
2022/04/16 05:58:38;;;;;;;;;11.50;9.00;;;;;20.81;38.03;102207.69;4976531;28;45447;-62
2022/04/16 06:01:03;;;;;;;;;9.50;9.00;;;;;20.79;37.51;102200.72;4975840;28;45786;-61
2022/04/16 06:03:29;;;;;;;;;12.25;11.00;;;;;20.81;37.87;102212.94;4976009;28;45239;-59
2022/04/16 06:05:56;;;;;;;;;11.00;11.00;;;;;20.81;37.54;102220.84;4976051;28;45497;-65
2022/04/16 06:08:21;;;;;;;;;10.75;10.50;;;;;20.80;37.68;102221.78;4976088;28;45393;-60
2022/04/16 06:10:47;;;;;;;;;10.75;10.00;;;;;20.80;37.90;102218.25;4975772;28;46416;-62
2022/04/16 06:13:12;;;;;;;;;12.25;10.75;;;;;20.80;37.69;102223.53;4975544;28;45367;-57
2022/04/16 06:15:43;;;;;;;;;14.00;11.00;;;;;20.80;37.58;102224.41;4976113;28;45263;-57
2022/04/16 06:18:12;;;;;;;;;11.00;10.00;;;;;20.81;37.83;102225.25;4976106;28;45521;-62
2022/04/16 06:20:38;;;;;;;;;12.50;12.00;;;;;20.81;37.58;102225.25;4975940;28;46359;-62
2022/04/16 06:23:04;;;;;;;;;13.75;13.75;;;;;20.80;37.58;102234.06;4975569;28;45453;-62
2022/04/16 06:25:30;;;;;;;;;14.25;13.50;;;;;20.79;37.96;102220.03;4975907;28;45381;-64
2022/04/16 06:27:55;;;;;;;;;11.00;11.00;;;;;20.79;37.91;102233.22;4975782;28;45286;-65
2022/04/16 06:30:21;;;;;;;;;12.50;11.25;;;;;20.79;37.58;102227.06;4975336;28;46498;-66
2022/04/16 06:32:46;;;;;;;;;12.50;11.50;;;;;20.79;37.81;102229.72;4975410;28;45228;-64
2022/04/16 06:35:12;;;;;;;;;10.75;10.75;;;;;20.80;37.72;102234.06;4974453;28;45351;-64
2022/04/16 06:37:40;;;;;;;;;12.00;11.25;;;;;20.79;37.97;102227.06;4975895;28;45258;-63
2022/04/16 06:40:06;;;;;;;;;16.50;11.75;;;;;20.80;37.98;102226.16;4975249;28;46086;-66
2022/04/16 06:42:32;;;;;;;;;12.00;12.00;;;;;20.79;37.82;102229.72;4973928;28;45379;-61
2022/04/16 06:44:58;;;;;;;;;11.50;10.00;;;;;20.79;37.62;102233.22;4975476;28;45915;-63
2022/04/16 06:47:24;;;;;;;;;12.00;12.00;;;;;20.79;37.48;102227.94;4975508;28;45559;-60
2022/04/16 06:49:49;;;;;;;;;13.00;11.75;;;;;20.79;37.64;102220.03;4975116;28;45962;-65
2022/04/16 06:52:17;;;;;;;;;13.50;12.75;;;;;20.80;37.72;102226.16;4974625;28;45372;-66
2022/04/16 06:54:43;;;;;;;;;11.25;11.25;;;;;20.79;37.89;102227.94;4975586;28;45363;-64
2022/04/16 06:57:08;;;;;;;;;13.75;13.00;;;;;20.79;37.00;102221.81;4975744;28;45606;-59
2022/04/16 06:59:34;;;;;;;;;10.75;10.50;;;;;20.80;37.76;102219.13;4975318;28;45348;-65
2022/04/16 07:01:59;;;;;;;;;13.75;11.50;;;;;20.79;37.55;102214.78;4973741;28;45250;-61
2022/04/16 07:04:24;;;;;;;;;15.25;15.25;;;;;20.81;37.50;102220.84;4974005;28;45340;-63
2022/04/16 07:06:50;;;;;;;;;9.67;9.33;;;;;20.81;37.44;102219.97;4974822;28;51834;-56
2022/04/16 07:09:15;;;;;;;;;11.00;10.00;;;;;20.81;37.72;102222.63;4974780;28;50596;-61
2022/04/16 07:11:40;;;;;;;;;13.50;10.50;;;;;20.82;37.84;102219.94;4975233;28;45450;-58
2022/04/16 07:14:06;;;;;;;;;16.50;16.00;;;;;20.81;37.87;102220.84;4974944;28;45395;-58
2022/04/16 07:16:31;;;;;;;;;13.50;13.25;;;;;20.82;37.78;102217.31;4975239;28;45328;-56
2022/04/16 07:18:56;;;;;;;;;14.50;13.75;;;;;20.84;37.40;102214.63;4974616;28;45401;-58
2022/04/16 07:21:21;;;;;;;;;12.25;10.75;;;;;20.84;37.36;102206.72;4973658;28;45362;-57
2022/04/16 07:23:47;;;;;;;;;18.00;15.50;;;;;20.84;37.18;102214.63;4975018;28;45398;-54
2022/04/16 07:26:12;;;;;;;;;19.25;14.75;;;;;20.85;37.59;102211.06;4975135;28;45300;-62
2022/04/16 07:28:37;;;;;;;;;12.75;11.50;;;;;20.85;37.58;102211.91;4974653;28;45437;-61
2022/04/16 07:31:03;;;;;;;;;10.75;10.25;;;;;20.85;37.26;102217.19;4974764;28;45399;-60
2022/04/16 07:33:29;;;;;;;;;10.25;10.25;;;;;20.85;37.80;102213.69;4974780;28;45352;-64
2022/04/16 07:35:55;;;;;;;;;14.50;14.25;;;;;20.87;37.26;102218.91;4974845;28;45346;-54
2022/04/16 07:38:21;;;;;;;;;15.75;11.75;;;;;20.87;37.52;102209.25;4957310;28;46573;-61
2022/04/16 07:40:46;;;;;;;;;11.50;11.50;;;;;20.88;37.55;102208.34;4974571;28;45537;-59
2022/04/16 07:43:13;;;;;;;;;12.75;12.00;;;;;20.87;37.26;102214.50;4975342;28;45233;-58
2022/04/16 07:45:39;;;;;;;;;14.75;11.00;;;;;20.89;37.39;102223.19;4975107;28;45197;-61
2022/04/16 07:48:04;;;;;;;;;12.00;12.00;;;;;20.89;37.47;102223.19;4974799;28;45440;-66
2022/04/16 07:50:30;;;;;;;;;14.00;12.75;;;;;20.90;37.46;102230.19;4974614;28;45732;-65
2022/04/16 07:52:55;;;;;;;;;10.25;10.25;;;;;20.92;37.50;102231.00;4974619;28;45426;-65
2022/04/16 07:55:22;;;;;;;;;13.25;13.00;;;;;20.92;37.27;102233.66;4974702;28;45454;-66
2022/04/16 07:57:48;;;;;;;;;12.50;12.50;;;;;20.93;37.33;102235.38;4974329;28;45556;-62
2022/04/16 08:00:14;;;;;;;;;13.75;11.50;;;;;20.95;37.55;102232.66;4974691;28;46061;-66
2022/04/16 08:02:40;;;;;;;;;12.50;11.75;;;;;20.95;37.43;102240.56;4973154;28;45273;-64
2022/04/16 08:05:06;;;;;;;;;13.00;11.00;;;;;20.95;37.21;102244.09;4974592;28;45486;-64
2022/04/16 08:07:32;;;;;;;;;12.00;12.00;;;;;20.94;37.41;102242.38;4974343;28;45368;-67
2022/04/16 08:09:57;;;;;;;;;12.25;12.25;;;;;20.94;37.04;102231.81;4974166;28;45497;-66
2022/04/16 08:12:25;;;;;;;;;13.00;12.75;;;;;20.96;37.32;102234.38;4974371;28;45793;-63
2022/04/16 08:14:50;;;;;;;;;13.25;11.00;;;;;20.96;37.17;102237.91;4973063;28;45550;-65
2022/04/16 08:17:15;;;;;;;;;13.00;13.00;;;;;20.97;37.26;102237.00;4974559;28;45412;-63
2022/04/16 08:19:41;;;;;;;;;9.25;9.25;;;;;20.95;37.38;102238.81;4974052;28;45391;-65
2022/04/16 08:22:07;;;;;;;;;16.25;13.00;;;;;20.96;37.44;102243.19;4974310;28;45335;-63
2022/04/16 08:24:41;;;;;;;;;18.00;15.00;;;;;20.97;37.22;102242.25;4974334;28;45554;-59
2022/04/16 08:27:07;;;;;;;;;13.00;12.50;;;;;20.98;37.01;102251.91;4973848;28;46331;-65
2022/04/16 08:29:33;;;;;;;;;17.00;13.50;;;;;20.98;37.39;102249.25;4973987;28;45829;-65
2022/04/16 08:31:59;;;;;;;;;12.25;11.25;;;;;20.97;37.28;102255.44;4973026;28;45446;-64
2022/04/16 08:34:24;;;;;;;;;15.00;12.25;;;;;20.98;36.90;102257.16;4974215;28;45456;-66
2022/04/16 08:36:49;;;;;;;;;10.50;9.75;;;;;20.99;37.42;102252.75;4973768;28;46053;-51
2022/04/16 08:39:15;;;;;;;;;15.00;12.25;;;;;21.00;37.15;102254.47;4974152;28;45347;-66
2022/04/16 08:41:41;;;;;;;;;12.25;12.00;;;;;21.01;37.21;102254.41;4973884;28;45279;-66
2022/04/16 08:44:08;;;;;;;;;14.00;13.00;;;;;21.02;36.95;102255.28;4974230;28;45601;-52
2022/04/16 08:46:33;;;;;;;;;12.75;10.50;;;;;21.03;36.98;102251.72;4973895;28;45700;-51
2022/04/16 08:48:59;;;;;;;;;15.75;14.25;;;;;21.04;37.00;102258.72;4973790;28;45289;-61
2022/04/16 08:51:29;;;;;;;;;10.75;10.75;;;;;21.04;37.05;102257.84;4974028;28;45293;-54
2022/04/16 08:53:55;;;;;;;;;13.75;11.00;;;;;21.05;37.24;102259.56;4973864;28;45375;-56
2022/04/16 08:56:20;;;;;;;;;12.75;10.25;;;;;21.07;37.43;102260.38;4972304;28;47163;-61
2022/04/16 08:58:45;;;;;;;;;12.50;11.75;;;;;21.07;37.00;102261.25;4974003;28;45271;-61
2022/04/16 09:01:11;;;;;;;;;11.75;11.00;;;;;21.08;37.16;102260.31;4973771;28;45264;-62
2022/04/16 09:03:39;;;;;;;;;10.25;10.25;;;;;21.08;37.16;102259.47;4973859;28;45418;-66
2022/04/16 09:06:05;;;;;;;;;13.25;11.75;;;;;21.09;37.17;102261.19;4973392;28;45436;-65
2022/04/16 09:08:32;;;;;;;;;13.75;12.50;;;;;21.09;36.95;102258.56;4972120;28;45867;-62
2022/04/16 09:11:10;;;;;;;;;12.50;11.50;;;;;21.08;36.98;102259.47;4972308;28;45448;-65
2022/04/16 09:13:39;;;;;;;;;11.75;10.25;;;;;21.10;37.19;102262.94;4973498;28;45466;-61
2022/04/16 09:16:08;;;;;;;;;13.75;12.25;;;;;21.10;36.97;102258.50;4975216;28;46721;-62
2022/04/16 09:18:50;;;;;;;;;11.50;11.50;;;;;21.11;37.00;102254.09;4976284;28;45914;-61
2022/04/16 09:21:16;;;;;;;;;13.50;12.50;;;;;21.10;37.24;102249.75;4976625;28;45462;-61
2022/04/16 09:23:51;;;;;;;;;12.25;11.00;;;;;21.12;37.03;102247.88;4976853;28;45334;-62
2022/04/16 09:26:28;;;;;;;;;12.00;11.50;;;;;21.13;37.01;102244.34;4976507;28;46813;-61
2022/04/16 09:28:54;;;;;;;;;13.00;10.00;;;;;21.13;36.82;102246.97;4976254;28;45382;-63
2022/04/16 09:31:27;;;;;;;;;13.25;12.50;;;;;21.13;36.84;102244.34;4976810;28;45280;-66
2022/04/16 09:33:52;;;;;;;;;11.75;11.75;;;;;21.15;37.15;102242.53;4976345;28;45453;-65
2022/04/16 09:36:27;;;;;;;;;13.25;12.00;;;;;21.15;36.93;102240.75;4976589;28;45471;-63
2022/04/16 09:39:00;;;;;;;;;9.75;9.75;;;;;21.15;37.16;102239.88;4976335;28;45403;-57
2022/04/16 09:41:40;;;;;;;;;17.25;15.00;;;;;21.16;37.02;102241.59;4976529;28;45340;-62
2022/04/16 09:44:17;;;;;;;;;12.25;11.00;;;;;21.14;36.76;102231.13;4976247;28;45399;-65
2022/04/16 09:46:45;;;;;;;;;13.00;13.00;;;;;21.15;37.27;102240.75;4976071;28;47571;-64
2022/04/16 09:49:12;;;;;;;;;11.00;11.00;;;;;21.18;36.91;102239.78;4974785;28;45441;-66
2022/04/16 09:51:42;;;;;;;;;13.75;10.50;;;;;21.19;36.88;102224.81;4976160;28;45391;-65
2022/04/16 09:54:09;;;;;;;;;12.00;12.00;;;;;21.19;37.00;102230.97;4976239;28;45581;-63
2022/04/16 09:56:36;;;;;;;;;11.25;11.00;;;;;21.19;36.87;102225.69;4974682;28;45768;-62
2022/04/16 09:59:07;;;;;;;;;14.00;12.00;;;;;21.20;37.01;102218.63;4976063;28;46591;-65
2022/04/16 10:01:33;;;;;;;;;10.00;10.00;;;;;21.20;36.99;102224.78;4975945;28;45326;-65
2022/04/16 10:04:03;;;;;;;;;13.75;11.75;;;;;21.21;37.03;102233.53;4976154;28;45621;-65
2022/04/16 10:06:29;;;;;;;;;14.75;12.00;;;;;21.21;36.96;102229.13;4975905;28;46993;-64
2022/04/16 10:08:56;;;;;;;;;12.75;11.00;;;;;21.23;37.11;102227.28;4975884;28;45351;-65
2022/04/16 10:11:42;;;;;;;;;11.00;10.25;;;;;21.23;37.05;102226.44;4976394;28;45339;-65
2022/04/16 10:14:21;;;;;;;;;13.50;11.00;;;;;21.23;36.95;102224.63;4976070;28;45257;-65
2022/04/16 10:17:14;;;;;;;;;11.00;9.75;;;;;21.25;36.82;102230.72;4975838;28;45329;-64
2022/04/16 10:19:45;;;;;;;;;11.75;10.25;;;;;21.24;36.88;102239.53;4974333;28;45425;-66
2022/04/16 10:22:25;;;;;;;;;8.50;7.50;;;;;21.25;37.04;102241.28;4974751;28;45354;-66
2022/04/16 10:24:53;;;;;;;;;16.00;13.75;;;;;21.26;36.79;102234.25;4976361;28;45456;-66
2022/04/16 10:27:38;;;;;;;;;13.00;13.00;;;;;21.25;37.03;102232.50;4974847;28;47511;-66
2022/04/16 10:30:09;;;;;;;;;11.00;11.00;;;;;21.26;37.20;102235.09;4975562;28;46092;-66
2022/04/16 10:32:39;;;;;;;;;11.75;11.75;;;;;21.26;37.03;102231.59;4975732;28;45267;-63
2022/04/16 10:35:06;;;;;;;;;9.25;9.25;;;;;21.26;36.87;102236.88;4975708;28;45458;-60
2022/04/16 10:37:39;;;;;;;;;10.25;9.75;;;;;21.26;36.56;102237.72;4975412;28;46019;-63
2022/04/16 10:40:25;;;;;;;;;17.50;15.50;;;;;21.26;36.34;102229.81;4975277;28;45434;-63
2022/04/16 10:42:57;;;;;;;;;12.75;12.75;;;;;21.24;36.21;102229.00;4975938;28;45361;-61
2022/04/16 10:45:23;;;;;;;;;10.50;9.50;;;;;21.22;36.66;102222.91;4976019;28;45399;-65
2022/04/16 10:47:51;;;;;;;;;11.00;11.00;;;;;21.23;36.50;102231.69;4975737;28;45632;-64
2022/04/16 10:50:18;;;;;;;;;10.50;10.00;;;;;21.21;36.48;102222.97;4975354;28;45783;-66
2022/04/16 10:52:57;;;;;;;;;11.25;11.25;;;;;21.20;36.51;102215.97;4975561;28;45416;-60
2022/04/16 10:55:30;;;;;;;;;15.00;11.00;;;;;21.20;36.63;102222.13;4975800;28;45405;-64
2022/04/16 10:58:04;;;;;;;;;9.25;8.50;;;;;21.21;36.54;102218.59;4973864;28;47399;-66
2022/04/16 11:00:46;;;;;;;;;10.75;9.25;;;;;21.22;36.66;102214.16;4975166;28;45686;-64
2022/04/16 11:03:18;;;;;;;;;15.75;10.25;;;;;21.23;36.29;102221.16;4975408;28;45276;-64
2022/04/16 11:05:44;;;;;;;;;10.50;10.00;;;;;21.24;36.09;102223.72;4975221;28;45436;-64
2022/04/16 11:08:14;;;;;;;;;12.25;10.00;;;;;21.23;36.36;102214.09;4974990;28;46376;-65
2022/04/16 11:10:41;;;;;;;;;12.75;10.00;;;;;21.22;36.34;102208.88;4975128;28;45846;-61
2022/04/16 11:13:07;;;;;;;;;11.75;11.75;;;;;21.25;36.22;102204.34;4975052;28;45409;-63
2022/04/16 11:15:32;;;;;;;;;9.25;8.50;;;;;21.26;36.49;102215.78;4975222;28;45395;-65
2022/04/16 11:17:59;;;;;;;;;10.25;10.25;;;;;21.25;35.91;102214.91;4974788;28;46347;-65
2022/04/16 11:20:27;;;;;;;;;10.50;10.50;;;;;21.27;35.94;102202.53;4975064;28;46032;-52
2022/04/16 11:22:53;;;;;;;;;8.75;8.50;;;;;21.26;36.27;102211.34;4974113;28;45443;-65
2022/04/16 11:25:22;;;;;;;;;12.25;9.50;;;;;21.27;36.05;102207.81;4975138;28;45607;-67
2022/04/16 11:36:11;;;;;;;;;9.50;9.00;;;;;21.31;36.21;102225.25;4975105;28;45319;-64
2022/04/16 11:38:39;;;;;;;;;9.50;9.25;;;;;21.31;36.03;102221.72;4973024;28;47337;-66